sensor_id;sensor_type;location;lat;lon;timestamp;P1;durP1;ratioP1;P2;durP2;ratioP2
31652;SDS011;18261;53.648;9.910;2023-02-03T00:01:49;13.63;;;10.07;;
31652;SDS011;18261;53.648;9.910;2023-02-03T00:04:15;13.38;;;9.13;;
31652;SDS011;18261;53.648;9.910;2023-02-03T00:06:41;12.75;;;9.73;;
31652;SDS011;18261;53.648;9.910;2023-02-03T00:09:07;14.40;;;10.25;;
31652;SDS011;18261;53.648;9.910;2023-02-03T00:11:34;15.52;;;11.35;;
31652;SDS011;18261;53.648;9.910;2023-02-03T00:14:00;15.00;;;10.73;;
31652;SDS011;18261;53.648;9.910;2023-02-03T00:16:26;17.38;;;11.75;;
31652;SDS011;18261;53.648;9.910;2023-02-03T00:18:52;13.40;;;10.82;;
31652;SDS011;18261;53.648;9.910;2023-02-03T00:21:18;14.95;;;10.75;;
31652;SDS011;18261;53.648;9.910;2023-02-03T00:23:44;21.92;;;12.23;;
31652;SDS011;18261;53.648;9.910;2023-02-03T00:26:10;16.63;;;11.95;;
31652;SDS011;18261;53.648;9.910;2023-02-03T00:28:37;15.82;;;12.00;;
31652;SDS011;18261;53.648;9.910;2023-02-03T00:31:03;17.02;;;11.48;;
31652;SDS011;18261;53.648;9.910;2023-02-03T00:33:29;16.15;;;11.70;;
31652;SDS011;18261;53.648;9.910;2023-02-03T00:35:57;16.60;;;11.30;;
31652;SDS011;18261;53.648;9.910;2023-02-03T00:38:26;18.52;;;11.88;;
31652;SDS011;18261;53.648;9.910;2023-02-03T00:40:52;17.23;;;11.63;;
31652;SDS011;18261;53.648;9.910;2023-02-03T00:43:19;19.75;;;11.52;;
31652;SDS011;18261;53.648;9.910;2023-02-03T00:45:45;16.30;;;11.35;;
31652;SDS011;18261;53.648;9.910;2023-02-03T00:48:11;21.25;;;11.38;;
31652;SDS011;18261;53.648;9.910;2023-02-03T00:50:38;19.83;;;11.55;;
31652;SDS011;18261;53.648;9.910;2023-02-03T00:53:03;23.13;;;12.02;;
31652;SDS011;18261;53.648;9.910;2023-02-03T00:55:29;27.85;;;11.77;;
31652;SDS011;18261;53.648;9.910;2023-02-03T00:57:55;27.38;;;11.68;;
31652;SDS011;18261;53.648;9.910;2023-02-03T01:00:21;29.42;;;11.38;;
31652;SDS011;18261;53.648;9.910;2023-02-03T01:02:47;24.17;;;11.43;;
31652;SDS011;18261;53.648;9.910;2023-02-03T01:05:13;29.83;;;11.60;;
31652;SDS011;18261;53.648;9.910;2023-02-03T01:07:39;35.10;;;11.52;;
31652;SDS011;18261;53.648;9.910;2023-02-03T01:10:05;36.72;;;12.23;;
31652;SDS011;18261;53.648;9.910;2023-02-03T01:12:32;25.90;;;10.95;;
31652;SDS011;18261;53.648;9.910;2023-02-03T01:14:57;30.33;;;10.98;;
31652;SDS011;18261;53.648;9.910;2023-02-03T01:17:24;39.13;;;11.07;;
31652;SDS011;18261;53.648;9.910;2023-02-03T01:19:50;35.67;;;11.45;;
31652;SDS011;18261;53.648;9.910;2023-02-03T01:22:16;27.63;;;10.68;;
31652;SDS011;18261;53.648;9.910;2023-02-03T01:24:42;39.78;;;10.82;;
31652;SDS011;18261;53.648;9.910;2023-02-03T01:27:08;32.05;;;9.95;;
31652;SDS011;18261;53.648;9.910;2023-02-03T01:29:34;27.05;;;8.98;;
31652;SDS011;18261;53.648;9.910;2023-02-03T01:32:00;33.28;;;10.05;;
31652;SDS011;18261;53.648;9.910;2023-02-03T01:34:26;30.55;;;8.80;;
31652;SDS011;18261;53.648;9.910;2023-02-03T01:36:52;29.90;;;8.77;;
31652;SDS011;18261;53.648;9.910;2023-02-03T01:39:18;33.88;;;8.45;;
31652;SDS011;18261;53.648;9.910;2023-02-03T01:41:44;29.60;;;8.45;;
31652;SDS011;18261;53.648;9.910;2023-02-03T01:46:55;28.60;;;7.63;;
31652;SDS011;18261;53.648;9.910;2023-02-03T01:49:21;24.38;;;8.23;;
31652;SDS011;18261;53.648;9.910;2023-02-03T01:51:48;28.70;;;8.55;;
31652;SDS011;18261;53.648;9.910;2023-02-03T01:54:16;29.10;;;7.63;;
31652;SDS011;18261;53.648;9.910;2023-02-03T01:56:44;30.85;;;7.57;;
31652;SDS011;18261;53.648;9.910;2023-02-03T01:59:13;27.13;;;7.53;;
31652;SDS011;18261;53.648;9.910;2023-02-03T02:01:40;25.67;;;7.50;;
31652;SDS011;18261;53.648;9.910;2023-02-03T02:04:06;25.55;;;6.57;;
31652;SDS011;18261;53.648;9.910;2023-02-03T02:06:33;22.10;;;6.68;;
31652;SDS011;18261;53.648;9.910;2023-02-03T02:08:58;23.05;;;6.07;;
31652;SDS011;18261;53.648;9.910;2023-02-03T02:11:26;23.25;;;6.60;;
31652;SDS011;18261;53.648;9.910;2023-02-03T02:13:52;26.13;;;6.78;;
31652;SDS011;18261;53.648;9.910;2023-02-03T02:32:02;22.17;;;6.15;;
31652;SDS011;18261;53.648;9.910;2023-02-03T02:39:38;27.65;;;5.32;;
31652;SDS011;18261;53.648;9.910;2023-02-03T02:42:17;22.13;;;5.68;;
31652;SDS011;18261;53.648;9.910;2023-02-03T02:44:48;27.42;;;6.50;;
31652;SDS011;18261;53.648;9.910;2023-02-03T02:47:19;26.08;;;5.78;;
31652;SDS011;18261;53.648;9.910;2023-02-03T02:49:59;28.25;;;5.40;;
31652;SDS011;18261;53.648;9.910;2023-02-03T02:52:29;25.63;;;5.82;;
31652;SDS011;18261;53.648;9.910;2023-02-03T02:54:57;20.98;;;5.65;;
31652;SDS011;18261;53.648;9.910;2023-02-03T02:57:25;31.70;;;5.75;;
31652;SDS011;18261;53.648;9.910;2023-02-03T02:59:52;24.25;;;5.65;;
31652;SDS011;18261;53.648;9.910;2023-02-03T03:02:18;24.88;;;4.90;;
31652;SDS011;18261;53.648;9.910;2023-02-03T03:04:45;29.42;;;4.85;;
31652;SDS011;18261;53.648;9.910;2023-02-03T03:07:14;23.80;;;4.53;;
31652;SDS011;18261;53.648;9.910;2023-02-03T03:09:42;17.38;;;4.13;;
31652;SDS011;18261;53.648;9.910;2023-02-03T03:12:22;18.33;;;4.50;;
31652;SDS011;18261;53.648;9.910;2023-02-03T03:14:49;24.65;;;4.80;;
31652;SDS011;18261;53.648;9.910;2023-02-03T03:17:19;23.15;;;4.40;;
31652;SDS011;18261;53.648;9.910;2023-02-03T03:19:48;31.05;;;5.22;;
31652;SDS011;18261;53.648;9.910;2023-02-03T03:22:15;22.67;;;4.28;;
31652;SDS011;18261;53.648;9.910;2023-02-03T03:24:49;16.20;;;3.20;;
31652;SDS011;18261;53.648;9.910;2023-02-03T03:27:24;24.83;;;4.03;;
31652;SDS011;18261;53.648;9.910;2023-02-03T03:29:52;23.57;;;4.00;;
31652;SDS011;18261;53.648;9.910;2023-02-03T03:32:19;20.85;;;3.95;;
31652;SDS011;18261;53.648;9.910;2023-02-03T03:34:45;23.77;;;4.25;;
31652;SDS011;18261;53.648;9.910;2023-02-03T03:37:15;18.92;;;3.30;;
31652;SDS011;18261;53.648;9.910;2023-02-03T03:39:47;17.17;;;3.45;;
31652;SDS011;18261;53.648;9.910;2023-02-03T03:42:28;27.05;;;3.13;;
31652;SDS011;18261;53.648;9.910;2023-02-03T03:47:30;23.02;;;4.15;;
31652;SDS011;18261;53.648;9.910;2023-02-03T03:49:57;21.90;;;3.65;;
31652;SDS011;18261;53.648;9.910;2023-02-03T03:52:26;18.63;;;3.40;;
31652;SDS011;18261;53.648;9.910;2023-02-03T03:54:53;24.75;;;3.55;;
31652;SDS011;18261;53.648;9.910;2023-02-03T03:59:47;20.88;;;3.35;;
31652;SDS011;18261;53.648;9.910;2023-02-03T04:02:15;18.23;;;3.35;;
31652;SDS011;18261;53.648;9.910;2023-02-03T04:04:41;20.83;;;3.55;;
31652;SDS011;18261;53.648;9.910;2023-02-03T04:07:08;25.65;;;4.70;;
31652;SDS011;18261;53.648;9.910;2023-02-03T04:09:34;28.15;;;4.90;;
31652;SDS011;18261;53.648;9.910;2023-02-03T04:12:01;24.17;;;4.45;;
31652;SDS011;18261;53.648;9.910;2023-02-03T04:14:27;23.65;;;4.10;;
31652;SDS011;18261;53.648;9.910;2023-02-03T04:16:54;19.88;;;3.50;;
31652;SDS011;18261;53.648;9.910;2023-02-03T04:19:20;25.63;;;4.07;;
31652;SDS011;18261;53.648;9.910;2023-02-03T04:21:46;18.70;;;3.55;;
31652;SDS011;18261;53.648;9.910;2023-02-03T04:24:12;17.83;;;4.13;;
31652;SDS011;18261;53.648;9.910;2023-02-03T04:26:38;23.17;;;4.75;;
31652;SDS011;18261;53.648;9.910;2023-02-03T04:29:04;20.27;;;5.13;;
31652;SDS011;18261;53.648;9.910;2023-02-03T04:31:30;17.30;;;4.20;;
31652;SDS011;18261;53.648;9.910;2023-02-03T04:33:56;16.60;;;3.90;;
31652;SDS011;18261;53.648;9.910;2023-02-03T04:36:22;21.23;;;4.07;;
31652;SDS011;18261;53.648;9.910;2023-02-03T04:38:48;20.60;;;4.00;;
31652;SDS011;18261;53.648;9.910;2023-02-03T04:41:14;20.98;;;4.07;;
31652;SDS011;18261;53.648;9.910;2023-02-03T04:43:40;18.80;;;4.30;;
31652;SDS011;18261;53.648;9.910;2023-02-03T04:46:06;18.27;;;4.47;;
31652;SDS011;18261;53.648;9.910;2023-02-03T04:48:32;23.15;;;4.65;;
31652;SDS011;18261;53.648;9.910;2023-02-03T04:51:02;21.75;;;4.80;;
31652;SDS011;18261;53.648;9.910;2023-02-03T04:53:29;23.13;;;4.53;;
31652;SDS011;18261;53.648;9.910;2023-02-03T04:55:55;29.90;;;5.63;;
31652;SDS011;18261;53.648;9.910;2023-02-03T04:58:21;17.30;;;5.05;;
31652;SDS011;18261;53.648;9.910;2023-02-03T05:00:47;18.15;;;5.47;;
31652;SDS011;18261;53.648;9.910;2023-02-03T05:03:13;22.23;;;5.35;;
31652;SDS011;18261;53.648;9.910;2023-02-03T05:05:38;21.45;;;5.47;;
31652;SDS011;18261;53.648;9.910;2023-02-03T05:08:04;27.33;;;5.75;;
31652;SDS011;18261;53.648;9.910;2023-02-03T05:10:31;24.77;;;4.90;;
31652;SDS011;18261;53.648;9.910;2023-02-03T05:12:57;23.73;;;5.07;;
31652;SDS011;18261;53.648;9.910;2023-02-03T05:15:23;25.80;;;5.45;;
31652;SDS011;18261;53.648;9.910;2023-02-03T05:17:52;22.98;;;5.65;;
31652;SDS011;18261;53.648;9.910;2023-02-03T05:20:18;23.25;;;5.00;;
31652;SDS011;18261;53.648;9.910;2023-02-03T05:22:44;15.75;;;4.40;;
31652;SDS011;18261;53.648;9.910;2023-02-03T05:25:10;20.15;;;5.10;;
31652;SDS011;18261;53.648;9.910;2023-02-03T05:27:36;20.45;;;5.28;;
31652;SDS011;18261;53.648;9.910;2023-02-03T05:30:02;18.98;;;5.32;;
31652;SDS011;18261;53.648;9.910;2023-02-03T05:32:28;13.80;;;4.63;;
31652;SDS011;18261;53.648;9.910;2023-02-03T05:34:54;23.27;;;5.00;;
31652;SDS011;18261;53.648;9.910;2023-02-03T05:37:20;19.10;;;4.45;;
31652;SDS011;18261;53.648;9.910;2023-02-03T05:39:46;17.15;;;4.68;;
31652;SDS011;18261;53.648;9.910;2023-02-03T05:42:12;20.42;;;4.40;;
31652;SDS011;18261;53.648;9.910;2023-02-03T05:44:38;16.50;;;3.95;;
31652;SDS011;18261;53.648;9.910;2023-02-03T05:47:04;19.25;;;4.38;;
31652;SDS011;18261;53.648;9.910;2023-02-03T05:49:30;21.17;;;4.65;;
31652;SDS011;18261;53.648;9.910;2023-02-03T05:51:56;18.85;;;4.22;;
31652;SDS011;18261;53.648;9.910;2023-02-03T05:54:22;22.05;;;4.72;;
31652;SDS011;18261;53.648;9.910;2023-02-03T05:56:48;23.83;;;3.63;;
31652;SDS011;18261;53.648;9.910;2023-02-03T05:59:14;19.67;;;3.85;;
31652;SDS011;18261;53.648;9.910;2023-02-03T06:01:40;18.70;;;4.35;;
31652;SDS011;18261;53.648;9.910;2023-02-03T06:04:06;17.80;;;3.95;;
31652;SDS011;18261;53.648;9.910;2023-02-03T06:06:32;20.30;;;4.18;;
31652;SDS011;18261;53.648;9.910;2023-02-03T06:08:59;17.33;;;3.63;;
31652;SDS011;18261;53.648;9.910;2023-02-03T06:11:25;19.33;;;3.83;;
31652;SDS011;18261;53.648;9.910;2023-02-03T06:13:52;15.65;;;3.28;;
31652;SDS011;18261;53.648;9.910;2023-02-03T06:16:18;19.75;;;3.83;;
31652;SDS011;18261;53.648;9.910;2023-02-03T06:18:44;22.13;;;3.47;;
31652;SDS011;18261;53.648;9.910;2023-02-03T06:21:10;16.55;;;4.13;;
31652;SDS011;18261;53.648;9.910;2023-02-03T06:23:36;14.73;;;3.55;;
31652;SDS011;18261;53.648;9.910;2023-02-03T06:26:01;19.70;;;4.93;;
31652;SDS011;18261;53.648;9.910;2023-02-03T06:28:27;23.90;;;5.38;;
31652;SDS011;18261;53.648;9.910;2023-02-03T06:30:54;16.80;;;3.92;;
31652;SDS011;18261;53.648;9.910;2023-02-03T06:33:20;18.75;;;3.67;;
31652;SDS011;18261;53.648;9.910;2023-02-03T06:35:46;13.05;;;3.10;;
31652;SDS011;18261;53.648;9.910;2023-02-03T06:38:12;22.40;;;3.60;;
31652;SDS011;18261;53.648;9.910;2023-02-03T06:40:37;27.10;;;5.03;;
31652;SDS011;18261;53.648;9.910;2023-02-03T06:43:03;19.27;;;3.85;;
31652;SDS011;18261;53.648;9.910;2023-02-03T06:45:29;24.40;;;4.72;;
31652;SDS011;18261;53.648;9.910;2023-02-03T06:47:55;30.15;;;4.55;;
31652;SDS011;18261;53.648;9.910;2023-02-03T06:50:21;37.15;;;5.15;;
31652;SDS011;18261;53.648;9.910;2023-02-03T06:52:48;39.47;;;4.97;;
31652;SDS011;18261;53.648;9.910;2023-02-03T06:55:14;39.20;;;6.25;;
31652;SDS011;18261;53.648;9.910;2023-02-03T06:57:46;37.17;;;4.88;;
31652;SDS011;18261;53.648;9.910;2023-02-03T07:00:13;34.22;;;4.68;;
31652;SDS011;18261;53.648;9.910;2023-02-03T07:02:39;34.53;;;5.35;;
31652;SDS011;18261;53.648;9.910;2023-02-03T07:05:05;35.33;;;4.68;;
31652;SDS011;18261;53.648;9.910;2023-02-03T07:07:31;28.20;;;4.00;;
31652;SDS011;18261;53.648;9.910;2023-02-03T07:09:58;25.38;;;4.68;;
31652;SDS011;18261;53.648;9.910;2023-02-03T07:12:24;37.60;;;4.88;;
31652;SDS011;18261;53.648;9.910;2023-02-03T07:14:50;25.73;;;4.80;;
31652;SDS011;18261;53.648;9.910;2023-02-03T07:17:16;34.70;;;4.70;;
31652;SDS011;18261;53.648;9.910;2023-02-03T07:19:42;30.20;;;4.53;;
31652;SDS011;18261;53.648;9.910;2023-02-03T07:22:10;40.83;;;5.18;;
31652;SDS011;18261;53.648;9.910;2023-02-03T07:24:36;32.47;;;4.30;;
31652;SDS011;18261;53.648;9.910;2023-02-03T07:27:02;26.77;;;4.18;;
31652;SDS011;18261;53.648;9.910;2023-02-03T07:29:28;29.90;;;4.80;;
31652;SDS011;18261;53.648;9.910;2023-02-03T07:31:54;35.97;;;4.25;;
31652;SDS011;18261;53.648;9.910;2023-02-03T07:34:21;22.92;;;3.33;;
31652;SDS011;18261;53.648;9.910;2023-02-03T07:36:47;27.45;;;4.03;;
31652;SDS011;18261;53.648;9.910;2023-02-03T07:39:12;31.65;;;3.78;;
31652;SDS011;18261;53.648;9.910;2023-02-03T07:41:38;28.77;;;4.43;;
31652;SDS011;18261;53.648;9.910;2023-02-03T07:44:04;33.22;;;4.05;;
31652;SDS011;18261;53.648;9.910;2023-02-03T07:46:30;37.42;;;5.45;;
31652;SDS011;18261;53.648;9.910;2023-02-03T07:48:56;33.35;;;5.15;;
31652;SDS011;18261;53.648;9.910;2023-02-03T07:51:22;35.97;;;7.47;;
31652;SDS011;18261;53.648;9.910;2023-02-03T07:53:48;41.58;;;6.20;;
31652;SDS011;18261;53.648;9.910;2023-02-03T07:56:14;39.00;;;4.57;;
31652;SDS011;18261;53.648;9.910;2023-02-03T07:58:40;32.92;;;4.97;;
31652;SDS011;18261;53.648;9.910;2023-02-03T08:01:10;42.88;;;5.40;;
31652;SDS011;18261;53.648;9.910;2023-02-03T08:03:37;43.30;;;6.32;;
31652;SDS011;18261;53.648;9.910;2023-02-03T08:06:03;41.35;;;5.70;;
31652;SDS011;18261;53.648;9.910;2023-02-03T08:08:29;38.50;;;5.13;;
31652;SDS011;18261;53.648;9.910;2023-02-03T08:10:55;44.40;;;5.82;;
31652;SDS011;18261;53.648;9.910;2023-02-03T08:13:21;43.78;;;5.57;;
31652;SDS011;18261;53.648;9.910;2023-02-03T08:15:47;49.53;;;6.82;;
31652;SDS011;18261;53.648;9.910;2023-02-03T08:18:13;39.25;;;5.60;;
31652;SDS011;18261;53.648;9.910;2023-02-03T08:20:39;46.67;;;6.32;;
31652;SDS011;18261;53.648;9.910;2023-02-03T08:23:05;37.70;;;5.22;;
31652;SDS011;18261;53.648;9.910;2023-02-03T08:25:31;49.70;;;6.57;;
31652;SDS011;18261;53.648;9.910;2023-02-03T08:27:57;39.15;;;5.53;;
31652;SDS011;18261;53.648;9.910;2023-02-03T08:30:24;50.65;;;5.50;;
31652;SDS011;18261;53.648;9.910;2023-02-03T08:32:50;61.05;;;7.57;;
31652;SDS011;18261;53.648;9.910;2023-02-03T08:35:16;52.33;;;7.85;;
31652;SDS011;18261;53.648;9.910;2023-02-03T08:37:42;56.60;;;7.97;;
31652;SDS011;18261;53.648;9.910;2023-02-03T08:40:10;60.47;;;7.80;;
31652;SDS011;18261;53.648;9.910;2023-02-03T08:42:36;67.13;;;8.35;;
31652;SDS011;18261;53.648;9.910;2023-02-03T08:45:03;65.10;;;8.13;;
31652;SDS011;18261;53.648;9.910;2023-02-03T08:47:29;69.47;;;8.65;;
31652;SDS011;18261;53.648;9.910;2023-02-03T08:49:56;60.25;;;8.55;;
31652;SDS011;18261;53.648;9.910;2023-02-03T08:52:22;64.65;;;8.55;;
31652;SDS011;18261;53.648;9.910;2023-02-03T08:54:48;64.82;;;8.20;;
31652;SDS011;18261;53.648;9.910;2023-02-03T08:57:14;81.90;;;9.23;;
31652;SDS011;18261;53.648;9.910;2023-02-03T08:59:40;79.45;;;9.70;;
31652;SDS011;18261;53.648;9.910;2023-02-03T09:02:08;68.88;;;9.27;;
31652;SDS011;18261;53.648;9.910;2023-02-03T09:04:35;68.63;;;8.73;;
31652;SDS011;18261;53.648;9.910;2023-02-03T09:07:02;64.63;;;9.40;;
31652;SDS011;18261;53.648;9.910;2023-02-03T09:09:28;77.80;;;8.93;;
31652;SDS011;18261;53.648;9.910;2023-02-03T09:11:54;73.20;;;9.98;;
31652;SDS011;18261;53.648;9.910;2023-02-03T09:14:26;75.53;;;9.85;;
31652;SDS011;18261;53.648;9.910;2023-02-03T09:16:52;85.18;;;9.68;;
31652;SDS011;18261;53.648;9.910;2023-02-03T09:19:17;78.32;;;10.82;;
31652;SDS011;18261;53.648;9.910;2023-02-03T09:21:43;80.35;;;10.85;;
31652;SDS011;18261;53.648;9.910;2023-02-03T09:24:11;79.03;;;10.48;;
31652;SDS011;18261;53.648;9.910;2023-02-03T09:26:37;98.32;;;11.70;;
31652;SDS011;18261;53.648;9.910;2023-02-03T09:29:03;88.75;;;11.45;;
31652;SDS011;18261;53.648;9.910;2023-02-03T09:31:29;88.78;;;11.93;;
31652;SDS011;18261;53.648;9.910;2023-02-03T09:33:55;89.90;;;10.43;;
31652;SDS011;18261;53.648;9.910;2023-02-03T09:36:21;108.72;;;13.70;;
31652;SDS011;18261;53.648;9.910;2023-02-03T09:38:47;105.95;;;13.23;;
31652;SDS011;18261;53.648;9.910;2023-02-03T09:41:23;100.70;;;11.85;;
31652;SDS011;18261;53.648;9.910;2023-02-03T09:43:55;87.82;;;11.48;;
31652;SDS011;18261;53.648;9.910;2023-02-03T09:46:24;99.88;;;12.43;;
31652;SDS011;18261;53.648;9.910;2023-02-03T09:49:26;96.28;;;12.00;;
31652;SDS011;18261;53.648;9.910;2023-02-03T09:57:19;104.15;;;12.88;;
31652;SDS011;18261;53.648;9.910;2023-02-03T09:59:46;111.68;;;13.32;;
31652;SDS011;18261;53.648;9.910;2023-02-03T10:04:49;129.00;;;15.32;;
31652;SDS011;18261;53.648;9.910;2023-02-03T10:12:21;129.05;;;14.07;;
31652;SDS011;18261;53.648;9.910;2023-02-03T10:15:00;113.35;;;13.15;;
31652;SDS011;18261;53.648;9.910;2023-02-03T10:17:37;117.68;;;14.23;;
31652;SDS011;18261;53.648;9.910;2023-02-03T10:22:35;107.25;;;14.18;;
31652;SDS011;18261;53.648;9.910;2023-02-03T10:25:11;122.32;;;14.05;;
31652;SDS011;18261;53.648;9.910;2023-02-03T10:27:41;109.30;;;13.93;;
31652;SDS011;18261;53.648;9.910;2023-02-03T10:30:21;115.57;;;15.00;;
31652;SDS011;18261;53.648;9.910;2023-02-03T10:32:48;107.95;;;13.63;;
31652;SDS011;18261;53.648;9.910;2023-02-03T10:35:17;109.30;;;14.52;;
31652;SDS011;18261;53.648;9.910;2023-02-03T10:37:44;112.93;;;15.98;;
31652;SDS011;18261;53.648;9.910;2023-02-03T10:40:13;108.15;;;14.13;;
31652;SDS011;18261;53.648;9.910;2023-02-03T10:42:40;168.13;;;22.70;;
31652;SDS011;18261;53.648;9.910;2023-02-03T10:45:26;114.18;;;16.05;;
31652;SDS011;18261;53.648;9.910;2023-02-03T10:47:55;105.03;;;13.88;;
31652;SDS011;18261;53.648;9.910;2023-02-03T10:50:23;108.32;;;15.05;;
31652;SDS011;18261;53.648;9.910;2023-02-03T10:53:17;100.28;;;13.43;;
31652;SDS011;18261;53.648;9.910;2023-02-03T10:55:41;86.53;;;12.85;;
31652;SDS011;18261;53.648;9.910;2023-02-03T10:58:10;108.57;;;14.25;;
31652;SDS011;18261;53.648;9.910;2023-02-03T11:00:39;97.95;;;15.07;;
31652;SDS011;18261;53.648;9.910;2023-02-03T11:05:31;104.97;;;13.73;;
31652;SDS011;18261;53.648;9.910;2023-02-03T11:07:57;106.20;;;14.35;;
31652;SDS011;18261;53.648;9.910;2023-02-03T11:10:33;102.10;;;14.82;;
31652;SDS011;18261;53.648;9.910;2023-02-03T11:18:43;95.45;;;13.23;;
31652;SDS011;18261;53.648;9.910;2023-02-03T11:23:40;92.82;;;11.85;;
31652;SDS011;18261;53.648;9.910;2023-02-03T11:26:10;89.47;;;12.07;;
31652;SDS011;18261;53.648;9.910;2023-02-03T11:28:40;72.78;;;11.10;;
31652;SDS011;18261;53.648;9.910;2023-02-03T11:31:12;94.32;;;11.52;;
31652;SDS011;18261;53.648;9.910;2023-02-03T11:33:39;84.38;;;12.70;;
31652;SDS011;18261;53.648;9.910;2023-02-03T11:36:05;83.75;;;11.25;;
31652;SDS011;18261;53.648;9.910;2023-02-03T11:38:32;92.60;;;12.57;;
31652;SDS011;18261;53.648;9.910;2023-02-03T11:41:00;84.07;;;11.60;;
31652;SDS011;18261;53.648;9.910;2023-02-03T11:43:27;95.97;;;12.93;;
31652;SDS011;18261;53.648;9.910;2023-02-03T11:45:53;91.57;;;13.10;;
31652;SDS011;18261;53.648;9.910;2023-02-03T11:48:31;95.88;;;13.82;;
31652;SDS011;18261;53.648;9.910;2023-02-03T12:03:54;91.15;;;12.43;;
31652;SDS011;18261;53.648;9.910;2023-02-03T12:06:37;73.63;;;11.15;;
31652;SDS011;18261;53.648;9.910;2023-02-03T12:09:16;83.18;;;11.02;;
31652;SDS011;18261;53.648;9.910;2023-02-03T12:21:59;91.93;;;12.85;;
31652;SDS011;18261;53.648;9.910;2023-02-03T12:29:42;101.18;;;13.05;;
31652;SDS011;18261;53.648;9.910;2023-02-03T12:34:46;85.85;;;12.45;;
31652;SDS011;18261;53.648;9.910;2023-02-03T12:37:25;88.72;;;12.65;;
31652;SDS011;18261;53.648;9.910;2023-02-03T12:39:53;87.30;;;11.98;;
31652;SDS011;18261;53.648;9.910;2023-02-03T12:42:22;92.65;;;12.10;;
31652;SDS011;18261;53.648;9.910;2023-02-03T12:53:13;81.15;;;10.80;;
31652;SDS011;18261;53.648;9.910;2023-02-03T12:55:41;77.32;;;10.57;;
31652;SDS011;18261;53.648;9.910;2023-02-03T12:58:09;74.68;;;11.90;;
31652;SDS011;18261;53.648;9.910;2023-02-03T13:00:42;81.68;;;9.82;;
31652;SDS011;18261;53.648;9.910;2023-02-03T13:03:45;85.13;;;13.73;;
31652;SDS011;18261;53.648;9.910;2023-02-03T13:08:45;84.68;;;11.77;;
31652;SDS011;18261;53.648;9.910;2023-02-03T13:11:19;78.50;;;10.77;;
31652;SDS011;18261;53.648;9.910;2023-02-03T13:13:53;86.47;;;11.43;;
31652;SDS011;18261;53.648;9.910;2023-02-03T13:16:22;75.88;;;9.73;;
31652;SDS011;18261;53.648;9.910;2023-02-03T13:18:52;73.25;;;9.07;;
31652;SDS011;18261;53.648;9.910;2023-02-03T13:21:18;87.50;;;10.68;;
31652;SDS011;18261;53.648;9.910;2023-02-03T13:23:44;78.40;;;10.32;;
31652;SDS011;18261;53.648;9.910;2023-02-03T13:26:27;79.90;;;10.57;;
31652;SDS011;18261;53.648;9.910;2023-02-03T13:37:03;90.50;;;10.90;;
31652;SDS011;18261;53.648;9.910;2023-02-03T13:44:41;100.93;;;13.10;;
31652;SDS011;18261;53.648;9.910;2023-02-03T13:47:15;80.00;;;10.95;;
31652;SDS011;18261;53.648;9.910;2023-02-03T13:49:43;84.10;;;10.88;;
31652;SDS011;18261;53.648;9.910;2023-02-03T13:52:25;94.43;;;12.50;;
31652;SDS011;18261;53.648;9.910;2023-02-03T13:54:51;83.15;;;11.48;;
31652;SDS011;18261;53.648;9.910;2023-02-03T13:57:19;89.45;;;11.02;;
31652;SDS011;18261;53.648;9.910;2023-02-03T13:59:45;95.00;;;11.90;;
31652;SDS011;18261;53.648;9.910;2023-02-03T14:04:55;83.03;;;10.85;;
31652;SDS011;18261;53.648;9.910;2023-02-03T14:12:35;89.53;;;11.93;;
31652;SDS011;18261;53.648;9.910;2023-02-03T14:20:36;70.25;;;10.18;;
31652;SDS011;18261;53.648;9.910;2023-02-03T14:25:29;99.30;;;11.32;;
31652;SDS011;18261;53.648;9.910;2023-02-03T14:27:59;96.90;;;11.68;;
31652;SDS011;18261;53.648;9.910;2023-02-03T14:30:27;88.43;;;11.48;;
31652;SDS011;18261;53.648;9.910;2023-02-03T14:32:56;94.97;;;11.45;;
31652;SDS011;18261;53.648;9.910;2023-02-03T14:35:24;94.22;;;12.30;;
31652;SDS011;18261;53.648;9.910;2023-02-03T14:37:54;84.20;;;10.65;;
31652;SDS011;18261;53.648;9.910;2023-02-03T14:40:24;101.55;;;10.68;;
31652;SDS011;18261;53.648;9.910;2023-02-03T14:43:03;102.88;;;11.30;;
31652;SDS011;18261;53.648;9.910;2023-02-03T14:58:44;97.47;;;13.77;;
31652;SDS011;18261;53.648;9.910;2023-02-03T15:09:27;102.05;;;12.75;;
31652;SDS011;18261;53.648;9.910;2023-02-03T15:11:56;94.75;;;12.55;;
31652;SDS011;18261;53.648;9.910;2023-02-03T15:16:49;93.47;;;12.45;;
31652;SDS011;18261;53.648;9.910;2023-02-03T15:19:18;100.75;;;13.35;;
31652;SDS011;18261;53.648;9.910;2023-02-03T15:21:46;96.63;;;12.68;;
31652;SDS011;18261;53.648;9.910;2023-02-03T15:24:13;100.55;;;12.40;;
31652;SDS011;18261;53.648;9.910;2023-02-03T15:26:58;115.15;;;12.85;;
31652;SDS011;18261;53.648;9.910;2023-02-03T15:29:30;104.53;;;14.17;;
31652;SDS011;18261;53.648;9.910;2023-02-03T15:32:01;102.30;;;11.80;;
31652;SDS011;18261;53.648;9.910;2023-02-03T15:34:35;115.20;;;14.52;;
31652;SDS011;18261;53.648;9.910;2023-02-03T15:39:51;98.72;;;12.30;;
31652;SDS011;18261;53.648;9.910;2023-02-03T15:42:26;122.45;;;14.35;;
31652;SDS011;18261;53.648;9.910;2023-02-03T15:44:59;100.68;;;12.32;;
31652;SDS011;18261;53.648;9.910;2023-02-03T15:47:29;104.70;;;14.85;;
31652;SDS011;18261;53.648;9.910;2023-02-03T15:50:05;96.50;;;13.35;;
31652;SDS011;18261;53.648;9.910;2023-02-03T15:52:32;102.80;;;14.20;;
31652;SDS011;18261;53.648;9.910;2023-02-03T15:55:03;91.07;;;11.75;;
31652;SDS011;18261;53.648;9.910;2023-02-03T15:57:31;90.63;;;13.18;;
31652;SDS011;18261;53.648;9.910;2023-02-03T16:00:07;105.05;;;12.93;;
31652;SDS011;18261;53.648;9.910;2023-02-03T16:02:35;89.28;;;13.20;;
31652;SDS011;18261;53.648;9.910;2023-02-03T16:05:04;104.00;;;13.38;;
31652;SDS011;18261;53.648;9.910;2023-02-03T16:07:31;89.78;;;12.23;;
31652;SDS011;18261;53.648;9.910;2023-02-03T16:09:57;88.38;;;12.75;;
31652;SDS011;18261;53.648;9.910;2023-02-03T16:12:27;101.75;;;11.98;;
31652;SDS011;18261;53.648;9.910;2023-02-03T16:14:55;100.07;;;12.10;;
31652;SDS011;18261;53.648;9.910;2023-02-03T16:17:28;102.95;;;12.88;;
31652;SDS011;18261;53.648;9.910;2023-02-03T16:22:40;105.63;;;12.63;;
31652;SDS011;18261;53.648;9.910;2023-02-03T16:25:40;95.20;;;12.48;;
31652;SDS011;18261;53.648;9.910;2023-02-03T16:30:54;103.03;;;11.52;;
31652;SDS011;18261;53.648;9.910;2023-02-03T16:33:42;97.53;;;12.65;;
31652;SDS011;18261;53.648;9.910;2023-02-03T16:36:27;96.68;;;12.13;;
31652;SDS011;18261;53.648;9.910;2023-02-03T16:39:12;89.78;;;12.32;;
31652;SDS011;18261;53.648;9.910;2023-02-03T16:41:57;117.22;;;13.65;;
31652;SDS011;18261;53.648;9.910;2023-02-03T16:44:42;106.85;;;12.68;;
31652;SDS011;18261;53.648;9.910;2023-02-03T16:47:28;99.72;;;12.77;;
31652;SDS011;18261;53.648;9.910;2023-02-03T16:50:18;109.60;;;13.85;;
31652;SDS011;18261;53.648;9.910;2023-02-03T16:53:03;112.55;;;14.30;;
31652;SDS011;18261;53.648;9.910;2023-02-03T16:55:29;99.25;;;12.20;;
31652;SDS011;18261;53.648;9.910;2023-02-03T16:57:55;113.22;;;13.60;;
31652;SDS011;18261;53.648;9.910;2023-02-03T17:00:21;106.55;;;14.07;;
31652;SDS011;18261;53.648;9.910;2023-02-03T17:02:48;131.15;;;14.63;;
31652;SDS011;18261;53.648;9.910;2023-02-03T17:05:14;132.05;;;13.50;;
31652;SDS011;18261;53.648;9.910;2023-02-03T17:07:40;107.45;;;13.68;;
31652;SDS011;18261;53.648;9.910;2023-02-03T17:10:06;124.53;;;13.95;;
31652;SDS011;18261;53.648;9.910;2023-02-03T17:12:32;114.70;;;14.43;;